createdAt,value
2016-07-19T00:00:55.190Z,18.69
2016-07-19T00:01:55.210Z,18.8
2016-07-19T00:02:55.242Z,18.7
2016-07-19T00:03:55.260Z,18.65
2016-07-19T00:04:55.297Z,18.72
2016-07-19T00:06:10.243Z,18.66
2016-07-19T00:07:10.269Z,18.7
2016-07-19T00:08:10.293Z,18.62
2016-07-19T00:09:55.424Z,18.52
2016-07-19T00:10:55.446Z,18.48
2016-07-19T00:11:55.476Z,18.54
2016-07-19T00:12:55.506Z,18.48
2016-07-19T00:13:55.536Z,18.45
2016-07-19T00:14:55.558Z,18.36
2016-07-19T00:15:55.581Z,18.35
2016-07-19T00:16:55.613Z,18.39
2016-07-19T00:17:55.634Z,18.39
2016-07-19T00:18:55.665Z,18.36
2016-07-19T00:19:55.691Z,18.36
2016-07-19T00:20:55.721Z,18.3
2016-07-19T00:21:55.739Z,18.39
2016-07-19T00:23:10.692Z,18.27
2016-07-19T00:23:55.801Z,18.32
2016-07-19T00:24:55.825Z,18.42
2016-07-19T00:25:55.852Z,18.35
2016-07-19T00:26:55.886Z,18.36
2016-07-19T00:27:55.901Z,18.37
2016-07-19T00:28:55.934Z,18.36
2016-07-19T00:29:55.960Z,18.32
2016-07-19T00:30:55.981Z,18.35
2016-07-19T00:31:56.005Z,18.25
2016-07-19T00:32:56.038Z,18.29
2016-07-19T00:33:56.063Z,18.23
2016-07-19T00:35:11.020Z,18.26
2016-07-19T00:36:11.044Z,18.25
2016-07-19T00:37:11.069Z,18.18
2016-07-19T00:37:56.176Z,18.11
2016-07-19T00:39:11.123Z,18.12
2016-07-19T00:39:56.232Z,17.97
2016-07-19T00:40:56.253Z,18.07
2016-07-19T00:41:56.280Z,18.07
2016-07-19T00:42:56.305Z,17.92
2016-07-19T00:43:56.336Z,18
2016-07-19T00:44:56.372Z,17.95
2016-07-19T00:45:56.386Z,18.02
2016-07-19T00:46:56.410Z,17.97
2016-07-19T00:47:56.440Z,18
2016-07-19T00:49:56.493Z,17.92
2016-07-19T00:51:56.541Z,17.99
2016-07-19T00:53:56.602Z,17.96
2016-07-19T00:55:11.553Z,17.81
2016-07-19T00:55:56.654Z,17.93
2016-07-19T00:56:56.678Z,17.92
2016-07-19T00:57:56.702Z,17.93
2016-07-19T00:58:56.735Z,17.87
2016-07-19T00:59:56.757Z,17.9
2016-07-19T01:00:56.783Z,17.92
2016-07-19T01:01:56.815Z,17.93
2016-07-19T01:02:56.834Z,17.92
2016-07-19T01:03:56.864Z,17.95
2016-07-19T01:04:56.888Z,18.07
2016-07-19T01:05:56.916Z,18.1
2016-07-19T01:06:56.943Z,18.14
2016-07-19T01:08:11.897Z,18.14
2016-07-19T01:09:11.921Z,18.12
2016-07-19T01:10:11.949Z,18.15
2016-07-19T01:10:57.050Z,18.15
2016-07-19T01:11:57.081Z,18.12
2016-07-19T01:12:57.107Z,18.14
2016-07-19T01:13:57.127Z,18.07
2016-07-19T01:14:57.157Z,18.1
2016-07-19T01:15:57.185Z,18.08
2016-07-19T01:16:57.226Z,18.07
2016-07-19T01:17:57.234Z,18.1
2016-07-19T01:18:57.266Z,18.12
2016-07-19T01:19:57.291Z,18.23
2016-07-19T01:20:57.322Z,18.27
2016-07-19T01:21:57.344Z,18.25
2016-07-19T01:22:57.374Z,18.33
2016-07-19T01:23:57.389Z,18.32
2016-07-19T01:24:57.430Z,18.27
2016-07-19T01:25:57.449Z,18.25
2016-07-19T01:27:12.400Z,18.23
2016-07-19T01:27:57.502Z,18.32
2016-07-19T01:28:57.528Z,18.3
2016-07-19T01:29:57.555Z,18.33
2016-07-19T01:30:57.584Z,18.39
2016-07-19T01:31:57.610Z,18.45
2016-07-19T01:32:57.634Z,18.32
2016-07-19T01:33:57.663Z,18.3
2016-07-19T01:34:57.693Z,18.33
2016-07-19T01:35:57.714Z,18.44
2016-07-19T01:36:57.736Z,18.32
2016-07-19T01:37:57.766Z,18.37
2016-07-19T01:38:57.794Z,18.37
2016-07-19T01:39:57.817Z,18.37
2016-07-19T01:40:57.849Z,18.26
2016-07-19T01:42:12.801Z,18.27
2016-07-19T01:42:57.898Z,18.23
2016-07-19T01:43:57.927Z,18.17
2016-07-19T01:44:57.955Z,18.15
2016-07-19T01:45:57.977Z,18.11
2016-07-19T01:46:58.003Z,18.26
2016-07-19T01:47:58.036Z,18.23
2016-07-19T01:48:58.056Z,18.32
2016-07-19T01:49:58.087Z,18.25
2016-07-19T01:50:58.112Z,18.3
2016-07-19T01:51:58.155Z,18.35
2016-07-19T01:52:58.164Z,18.26
2016-07-19T01:53:58.194Z,18.33
2016-07-19T01:54:58.222Z,18.32
2016-07-19T01:55:58.246Z,18.42
2016-07-19T01:56:58.268Z,18.45
2016-07-19T01:58:13.224Z,18.3
2016-07-19T01:59:13.247Z,18.41
2016-07-19T02:00:13.290Z,18.41
2016-07-19T02:00:58.377Z,18.41
2016-07-19T02:01:58.408Z,18.3
2016-07-19T02:02:58.427Z,18.25
2016-07-19T02:03:58.454Z,18.36
2016-07-19T02:04:58.486Z,18.27
2016-07-19T02:05:58.509Z,18.32
2016-07-19T02:06:58.545Z,18.27
2016-07-19T02:07:58.562Z,18.37
2016-07-19T02:08:58.593Z,18.27
2016-07-19T02:09:58.618Z,18.25
2016-07-19T02:10:58.647Z,18.25
2016-07-19T02:12:58.695Z,18.32
2016-07-19T02:14:13.645Z,18.35
2016-07-19T02:14:58.744Z,18.3
2016-07-19T02:17:58.832Z,18.29
2016-07-19T02:18:58.857Z,18.44
2016-07-19T02:19:58.883Z,18.44
2016-07-19T02:20:58.921Z,18.39
2016-07-19T02:21:58.933Z,18.39
2016-07-19T02:22:58.962Z,18.39
2016-07-19T02:23:58.986Z,18.44
2016-07-19T02:24:59.025Z,18.51
2016-07-19T02:25:59.038Z,18.51
2016-07-19T02:26:59.079Z,18.48
2016-07-19T02:27:59.095Z,18.57
2016-07-19T02:29:14.047Z,18.51
2016-07-19T02:30:14.072Z,18.57
2016-07-19T02:30:59.176Z,18.57
2016-07-19T02:31:59.199Z,18.57
2016-07-19T02:32:59.226Z,18.66
2016-07-19T02:33:59.251Z,18.62
2016-07-19T02:34:59.280Z,18.6
2016-07-19T02:35:59.308Z,18.63
2016-07-19T02:36:59.333Z,18.62
2016-07-19T02:37:59.356Z,18.6
2016-07-19T02:38:59.383Z,18.58
2016-07-19T02:39:59.412Z,18.58
2016-07-19T02:40:59.436Z,18.66
2016-07-19T02:41:59.459Z,18.57
2016-07-19T02:42:59.494Z,18.67
2016-07-19T02:43:59.516Z,18.67
2016-07-19T02:45:14.475Z,18.57
2016-07-19T02:45:59.576Z,18.58
2016-07-19T02:47:14.520Z,18.63
2016-07-19T02:47:59.625Z,18.58
2016-07-19T02:48:59.652Z,18.58
2016-07-19T02:49:59.679Z,18.69
2016-07-19T02:50:59.707Z,18.6
2016-07-19T02:51:59.735Z,18.55
2016-07-19T02:52:59.764Z,18.58
2016-07-19T02:53:59.780Z,18.6
2016-07-19T02:54:59.816Z,18.6
2016-07-19T02:55:59.845Z,18.58
2016-07-19T02:57:14.793Z,18.62
2016-07-19T02:57:59.896Z,18.7
2016-07-19T02:58:59.919Z,18.58
2016-07-19T02:59:59.946Z,18.66
2016-07-19T03:00:59.975Z,18.72
2016-07-19T03:02:14.921Z,18.6
2016-07-19T03:03:00.023Z,18.63
2016-07-19T03:04:00.048Z,18.63
2016-07-19T03:05:00.074Z,18.62
2016-07-19T03:06:00.102Z,18.63
2016-07-19T03:07:00.122Z,18.65
2016-07-19T03:08:00.152Z,18.62
2016-07-19T03:09:00.187Z,18.6
2016-07-19T03:10:00.211Z,18.6
2016-07-19T03:11:00.234Z,18.6
2016-07-19T03:12:00.265Z,18.65
2016-07-19T03:13:00.288Z,18.57
2016-07-19T03:14:00.312Z,18.63
2016-07-19T03:15:15.269Z,18.58
2016-07-19T03:16:00.369Z,18.6
2016-07-19T03:17:15.318Z,18.58
2016-07-19T03:18:00.421Z,18.65
2016-07-19T03:20:00.473Z,18.63
2016-07-19T03:21:00.499Z,18.7
2016-07-19T03:22:00.525Z,18.67
2016-07-19T03:23:00.557Z,18.65
2016-07-19T03:24:00.579Z,18.69
2016-07-19T03:25:00.602Z,18.72
2016-07-19T03:26:00.630Z,18.75
2016-07-19T03:27:00.657Z,18.6
2016-07-19T03:28:00.684Z,18.69
2016-07-19T03:29:00.709Z,18.63
2016-07-19T03:30:00.744Z,18.72
2016-07-19T03:32:00.789Z,18.65
2016-07-19T03:33:15.739Z,18.72
2016-07-19T03:34:00.849Z,18.66
2016-07-19T03:35:15.791Z,18.73
2016-07-19T03:36:00.909Z,18.67
2016-07-19T03:38:00.949Z,18.73
2016-07-19T03:39:00.982Z,18.8
2016-07-19T03:40:00.998Z,18.81
2016-07-19T03:41:01.023Z,18.85
2016-07-19T03:42:01.053Z,18.78
2016-07-19T03:43:01.077Z,18.84
2016-07-19T03:44:01.122Z,18.85
2016-07-19T03:45:01.138Z,18.87
2016-07-19T03:46:01.160Z,18.82
2016-07-19T03:47:01.191Z,18.84
2016-07-19T03:48:01.221Z,18.8
2016-07-19T03:49:16.162Z,18.81
2016-07-19T03:50:01.264Z,18.81
2016-07-19T03:51:01.298Z,18.78
2016-07-19T03:52:02.017Z,18.82
2016-07-19T03:53:01.352Z,18.75
2016-07-19T03:54:01.375Z,18.82
2016-07-19T03:55:01.400Z,18.78
2016-07-19T03:56:01.429Z,18.88
2016-07-19T03:57:01.450Z,18.87
2016-07-19T03:58:01.486Z,18.84
2016-07-19T03:59:01.507Z,18.82
2016-07-19T04:01:01.566Z,18.82
2016-07-19T04:03:01.618Z,18.87
2016-07-19T04:04:01.643Z,18.82
2016-07-19T04:05:16.596Z,18.82
2016-07-19T04:06:01.692Z,18.82
2016-07-19T04:07:01.728Z,18.85
2016-07-19T04:09:01.775Z,18.85
2016-07-19T04:10:01.797Z,18.8
2016-07-19T04:11:01.822Z,18.82
2016-07-19T04:12:01.847Z,18.92
2016-07-19T04:13:01.930Z,18.87
2016-07-19T04:14:01.907Z,18.78
2016-07-19T04:15:01.928Z,18.85
2016-07-19T04:17:01.981Z,18.88
2016-07-19T04:19:02.042Z,19
2016-07-19T04:20:16.989Z,18.99
2016-07-19T04:21:02.091Z,18.92
2016-07-19T04:22:02.126Z,18.88
2016-07-19T04:23:02.142Z,18.99
2016-07-19T04:24:02.176Z,18.95
2016-07-19T04:25:02.198Z,18.94
2016-07-19T04:26:02.224Z,19
2016-07-19T04:27:02.250Z,18.98
2016-07-19T04:28:02.289Z,19.06
2016-07-19T04:29:02.301Z,19.1
2016-07-19T04:30:02.329Z,19.16
2016-07-19T04:31:02.357Z,19.1
2016-07-19T04:32:02.391Z,19.13
2016-07-19T04:33:02.411Z,19.14
2016-07-19T04:34:02.434Z,19.11
2016-07-19T04:35:02.459Z,19.11
2016-07-19T04:36:02.494Z,19.18
2016-07-19T04:37:02.509Z,19.18
2016-07-19T04:38:02.544Z,19.11
2016-07-19T04:40:02.593Z,19.14
2016-07-19T04:41:02.623Z,19.14
2016-07-19T04:42:02.653Z,19.06
2016-07-19T04:43:02.674Z,19.08
2016-07-19T04:44:02.705Z,19.13
2016-07-19T04:45:02.722Z,19.07
2016-07-19T04:46:02.756Z,19.02
2016-07-19T04:47:02.778Z,19.14
2016-07-19T04:48:02.804Z,19
2016-07-19T04:49:02.831Z,19.07
2016-07-19T04:50:02.859Z,19.07
2016-07-19T04:51:02.887Z,19.02
2016-07-19T04:52:17.838Z,19.1
2016-07-19T04:53:02.939Z,19.04
2016-07-19T04:54:02.966Z,19.16
2016-07-19T04:55:02.993Z,19.18
2016-07-19T04:56:03.018Z,19.14
2016-07-19T04:57:03.058Z,19.14
2016-07-19T04:58:03.067Z,19.21
2016-07-19T04:59:03.100Z,19.08
2016-07-19T05:00:03.130Z,19.16
2016-07-19T05:01:03.150Z,19.26
2016-07-19T05:02:03.177Z,19.21
2016-07-19T05:03:03.207Z,19.19
2016-07-19T05:04:03.234Z,19.28
2016-07-19T05:05:03.259Z,19.21
2016-07-19T05:06:18.212Z,19.16
2016-07-19T05:07:03.315Z,19.16
2016-07-19T05:08:18.269Z,19.26
2016-07-19T05:09:03.371Z,19.41
2016-07-19T05:10:03.395Z,19.16
2016-07-19T05:11:03.416Z,19.1
2016-07-19T05:12:03.443Z,19.13
2016-07-19T05:13:03.478Z,19.29
2016-07-19T05:14:03.502Z,19.33
2016-07-19T05:15:03.522Z,19.46
2016-07-19T05:16:03.555Z,19.44
2016-07-19T05:17:03.578Z,19.31
2016-07-19T05:18:03.605Z,19.44
2016-07-19T05:19:03.640Z,19.46
2016-07-19T05:20:03.657Z,19.36
2016-07-19T05:21:03.682Z,19.36
2016-07-19T05:22:18.637Z,19.37
2016-07-19T05:24:19.384Z,19.46
2016-07-19T05:25:03.794Z,19.56
2016-07-19T05:26:03.818Z,19.58
2016-07-19T05:27:03.847Z,19.63
2016-07-19T05:28:03.871Z,19.56
2016-07-19T05:29:03.901Z,19.61
2016-07-19T05:30:03.934Z,19.5
2016-07-19T05:31:03.954Z,19.68
2016-07-19T05:32:03.982Z,19.59
2016-07-19T05:33:04.006Z,19.55
2016-07-19T05:34:04.033Z,19.54
2016-07-19T05:36:04.087Z,19.32
2016-07-19T05:37:04.116Z,19.44
2016-07-19T05:38:04.138Z,19.41
2016-07-19T05:39:04.168Z,19.4
2016-07-19T05:40:19.122Z,19.47
2016-07-19T05:41:19.950Z,19.37
2016-07-19T05:42:04.248Z,19.39
2016-07-19T05:43:04.274Z,19.56
2016-07-19T05:44:04.312Z,19.51
2016-07-19T05:45:04.325Z,19.47
2016-07-19T05:46:04.353Z,19.47
2016-07-19T05:47:04.387Z,19.62
2016-07-19T05:48:04.412Z,19.62
2016-07-19T05:49:04.436Z,19.56
2016-07-19T05:50:04.458Z,19.68
2016-07-19T05:51:04.494Z,19.63
2016-07-19T05:52:04.510Z,19.59
2016-07-19T05:53:19.469Z,19.58
2016-07-19T05:54:04.561Z,19.58
2016-07-19T05:55:19.523Z,19.63
2016-07-19T05:56:19.544Z,19.65
2016-07-19T05:57:19.572Z,19.76
2016-07-19T05:58:04.679Z,19.69
2016-07-19T05:59:04.700Z,19.65
2016-07-19T06:00:04.728Z,19.69
2016-07-19T06:01:04.755Z,19.71
2016-07-19T06:02:04.785Z,19.92
2016-07-19T06:03:04.809Z,19.92
2016-07-19T06:04:04.835Z,19.95
2016-07-19T06:05:04.865Z,19.88
2016-07-19T06:06:04.890Z,19.61
2016-07-19T06:07:19.847Z,19.74
2016-07-19T06:08:04.941Z,19.76
2016-07-19T06:09:04.970Z,19.73
2016-07-19T06:10:05.004Z,19.76
2016-07-19T06:11:05.023Z,19.59
2016-07-19T06:12:05.067Z,19.55
2016-07-19T06:13:05.089Z,19.58
2016-07-19T06:14:05.125Z,19.58
2016-07-19T06:15:05.156Z,19.51
2016-07-19T06:16:05.175Z,19.55
2016-07-19T06:18:05.227Z,19.62
2016-07-19T06:19:05.251Z,19.59
2016-07-19T06:20:05.275Z,19.55
2016-07-19T06:22:05.330Z,19.55
2016-07-19T06:23:05.356Z,19.66
2016-07-19T06:24:05.390Z,19.62
2016-07-19T06:25:05.413Z,19.61
2016-07-19T06:26:20.357Z,19.78
2016-07-19T06:27:20.389Z,19.68
2016-07-19T06:28:05.493Z,19.69
2016-07-19T06:29:05.521Z,19.66
2016-07-19T06:30:05.547Z,19.66
2016-07-19T06:31:05.573Z,19.68
2016-07-19T06:32:06.291Z,19.59
2016-07-19T06:33:06.328Z,19.78
2016-07-19T06:34:05.658Z,19.92
2016-07-19T06:35:05.677Z,19.99
2016-07-19T06:36:05.700Z,20.02
2016-07-19T06:38:20.683Z,19.92
2016-07-19T06:39:05.783Z,19.88
2016-07-19T06:40:05.813Z,19.74
2016-07-19T06:41:20.761Z,19.84
2016-07-19T06:42:05.869Z,19.76
2016-07-19T06:43:20.811Z,19.84
2016-07-19T06:44:05.919Z,19.87
2016-07-19T06:45:05.950Z,20.08
2016-07-19T06:46:05.978Z,19.94
2016-07-19T06:47:06.003Z,19.92
2016-07-19T06:48:06.033Z,20.03
2016-07-19T06:49:06.057Z,20.13
2016-07-19T06:50:06.090Z,20.06
2016-07-19T06:51:06.107Z,20.13
2016-07-19T06:53:06.163Z,20.13
2016-07-19T06:54:06.229Z,20.14
2016-07-19T06:55:06.221Z,20.11
2016-07-19T06:56:21.167Z,20.1
2016-07-19T06:57:06.274Z,20.13
2016-07-19T06:58:06.305Z,20.23
2016-07-19T07:00:06.354Z,19.88
2016-07-19T07:01:06.374Z,19.96
2016-07-19T07:02:06.402Z,20.14
2016-07-19T07:04:06.459Z,20.01
2016-07-19T07:05:06.496Z,19.99
2016-07-19T07:06:06.521Z,20.01
2016-07-19T07:07:06.551Z,20.11
2016-07-19T07:08:06.571Z,20.23
2016-07-19T07:09:06.599Z,20.39
2016-07-19T07:10:21.548Z,20.39
2016-07-19T07:11:06.657Z,20.64
2016-07-19T07:12:21.602Z,20.47
2016-07-19T07:13:06.714Z,20.52
2016-07-19T07:14:06.732Z,20.32
2016-07-19T07:15:21.731Z,20.38
2016-07-19T07:16:06.784Z,20.51
2016-07-19T07:17:06.819Z,20.59
2016-07-19T07:18:06.842Z,20.72
2016-07-19T07:19:06.871Z,20.77
2016-07-19T07:20:06.898Z,21.04
2016-07-19T07:22:06.951Z,21.38
2016-07-19T07:23:06.990Z,21.43
2016-07-19T07:24:07.701Z,21.46
2016-07-19T07:25:07.030Z,21.42
2016-07-19T07:26:07.062Z,21.37
2016-07-19T07:27:07.098Z,21.27
2016-07-19T07:28:07.119Z,21.4
2016-07-19T07:29:07.148Z,21.5
2016-07-19T07:30:22.099Z,21.54
2016-07-19T07:31:07.206Z,21.62
2016-07-19T07:34:07.282Z,22.06
2016-07-19T07:35:07.318Z,22.22
2016-07-19T07:37:07.365Z,22.14
2016-07-19T07:38:22.325Z,22.68
2016-07-19T07:39:07.423Z,22.61
2016-07-19T07:40:07.451Z,22.79
2016-07-19T07:41:07.486Z,22.72
2016-07-19T07:42:07.526Z,22.92
2016-07-19T07:43:07.547Z,23.33
2016-07-19T07:44:07.570Z,23.95
2016-07-19T07:45:07.603Z,24.27
2016-07-19T07:46:07.636Z,24.55
2016-07-19T07:47:07.658Z,24.6
2016-07-19T07:49:07.715Z,24.88
2016-07-19T07:50:07.746Z,24.45
2016-07-19T07:51:07.784Z,24.76
2016-07-19T07:52:07.805Z,24.99
2016-07-19T07:53:07.845Z,25.6
2016-07-19T07:55:22.823Z,27.25
2016-07-19T07:56:22.853Z,27.57
2016-07-19T07:57:07.962Z,27.87
2016-07-19T07:58:08.001Z,28.58
2016-07-19T07:59:08.028Z,29.02
2016-07-19T08:00:08.055Z,29.61
2016-07-19T08:01:08.081Z,29.27
2016-07-19T08:02:23.043Z,29.42
2016-07-19T08:03:08.148Z,29.52
2016-07-19T08:04:08.190Z,29.08
2016-07-19T08:05:08.226Z,28.49
2016-07-19T08:06:08.249Z,28.43
2016-07-19T08:07:08.280Z,28.64
2016-07-19T08:08:08.320Z,28.37
2016-07-19T08:09:08.355Z,27.9
2016-07-19T08:10:08.380Z,27.06
2016-07-19T08:12:08.449Z,27.65
2016-07-19T08:13:08.480Z,28.33
2016-07-19T08:14:08.517Z,27.57
2016-07-19T08:15:23.518Z,26.77
2016-07-19T08:16:23.497Z,25.76
2016-07-19T08:17:08.614Z,25.4
2016-07-19T08:18:23.570Z,25.08
2016-07-19T08:19:08.676Z,24.91
2016-07-19T08:20:08.716Z,25.47
2016-07-19T08:21:08.735Z,25.88
2016-07-19T08:22:08.766Z,26.62
2016-07-19T08:23:08.813Z,27.44
2016-07-19T08:24:08.840Z,28.17
2016-07-19T08:25:08.870Z,28.21
2016-07-19T08:26:08.900Z,26.8
2016-07-19T08:27:08.934Z,26.73
2016-07-19T08:28:09.666Z,26.88
2016-07-19T08:30:09.039Z,27.72
2016-07-19T08:31:23.986Z,27.54
2016-07-19T08:32:09.102Z,27.12
2016-07-19T08:33:09.127Z,26.67
2016-07-19T08:34:24.085Z,26.94
2016-07-19T08:35:09.199Z,27.09
2016-07-19T08:36:09.227Z,26.84
2016-07-19T08:37:09.263Z,26.32
2016-07-19T08:38:09.291Z,25.8
2016-07-19T08:39:09.329Z,26.15
2016-07-19T08:40:09.359Z,26.28
2016-07-19T08:41:09.396Z,26.43
2016-07-19T08:42:24.345Z,26.8
2016-07-19T08:43:09.452Z,26.76
2016-07-19T08:44:24.409Z,26.54
2016-07-19T08:45:09.531Z,26.66
2016-07-19T08:46:09.550Z,26.01
2016-07-19T08:47:09.595Z,25.58
2016-07-19T08:48:09.609Z,25.43
2016-07-19T08:49:24.565Z,25.35
2016-07-19T08:50:24.597Z,25.18
2016-07-19T08:51:09.711Z,25.24
2016-07-19T08:52:09.737Z,25.08
2016-07-19T08:53:09.770Z,25.05
2016-07-19T08:54:09.802Z,25.17
2016-07-19T08:55:09.833Z,25.17
2016-07-19T08:56:09.868Z,25.39
2016-07-19T08:57:09.903Z,25.64
2016-07-19T08:58:09.929Z,25.28
2016-07-19T08:59:09.962Z,25.35
2016-07-19T09:00:09.997Z,25.51
2016-07-19T09:01:10.020Z,25.73
2016-07-19T09:02:10.753Z,25.43
2016-07-19T09:03:10.083Z,25.02
2016-07-19T09:04:10.119Z,24.93
2016-07-19T09:05:25.069Z,24.71
2016-07-19T09:06:10.179Z,24.71
2016-07-19T09:07:10.215Z,25.02
2016-07-19T09:08:10.243Z,25.03
2016-07-19T09:10:10.311Z,25.1
2016-07-19T09:11:10.337Z,25.38
2016-07-19T09:12:10.364Z,25.38
2016-07-19T09:13:10.403Z,25.57
2016-07-19T09:14:10.429Z,26.45
2016-07-19T09:15:10.463Z,26.44
2016-07-19T09:16:10.487Z,26.67
2016-07-19T09:17:10.518Z,26.88
2016-07-19T09:18:10.551Z,27.28
2016-07-19T09:19:10.583Z,26.45
2016-07-19T09:20:10.613Z,26.35
2016-07-19T09:21:10.649Z,26.01
2016-07-19T09:22:10.676Z,26.07
2016-07-19T09:23:10.709Z,25.85
2016-07-19T09:24:10.744Z,25.58
2016-07-19T09:25:25.697Z,25.76
2016-07-19T09:26:10.793Z,25.88
2016-07-19T09:27:10.833Z,26.06
2016-07-19T09:28:10.868Z,26.43
2016-07-19T09:29:10.889Z,26.52
2016-07-19T09:30:10.927Z,26.47
2016-07-19T09:31:10.959Z,26.44
2016-07-19T09:32:10.983Z,26.45
2016-07-19T09:33:11.011Z,26.72
2016-07-19T09:34:11.051Z,26.54
2016-07-19T09:35:11.075Z,26.36
2016-07-19T09:36:11.103Z,26.02
2016-07-19T09:37:26.060Z,26.33
2016-07-19T09:38:11.175Z,26.47
2016-07-19T09:40:11.238Z,26.1
2016-07-19T09:42:11.292Z,25.83
2016-07-19T09:43:11.334Z,26.32
2016-07-19T09:44:11.355Z,26.51
2016-07-19T09:45:26.313Z,26.32
2016-07-19T09:46:11.419Z,26.13
2016-07-19T09:47:11.447Z,26.17
2016-07-19T09:48:11.489Z,26.21
2016-07-19T09:49:24.253Z,26.23
2016-07-19T09:50:11.545Z,26.21
2016-07-19T09:51:11.575Z,25.85
2016-07-19T09:52:11.618Z,25.79
2016-07-19T09:53:26.560Z,25.92
2016-07-19T09:54:11.672Z,25.99
2016-07-19T09:55:11.689Z,25.6
2016-07-19T09:56:11.729Z,25.38
2016-07-19T09:58:11.792Z,25.58
2016-07-19T09:59:11.823Z,25.92
2016-07-19T10:01:11.887Z,25.7
2016-07-19T10:03:11.936Z,25.46
2016-07-19T10:04:11.972Z,25.4
2016-07-19T10:06:12.036Z,25.55
2016-07-19T10:07:12.066Z,25.83
2016-07-19T10:08:12.092Z,26.48
2016-07-19T10:09:27.047Z,26.39
2016-07-19T10:10:12.170Z,26.21
2016-07-19T10:11:12.185Z,25.85
2016-07-19T10:12:12.214Z,25.55
2016-07-19T10:13:12.248Z,25.43
2016-07-19T10:14:12.278Z,25.51
2016-07-19T10:15:12.314Z,25.27
2016-07-19T10:16:12.341Z,24.76
2016-07-19T10:17:12.369Z,24.57
2016-07-19T10:18:12.400Z,24.65
2016-07-19T10:19:12.432Z,24.81
2016-07-19T10:20:12.466Z,24.67
2016-07-19T10:21:27.414Z,24.5
2016-07-19T10:22:12.529Z,24.68
2016-07-19T10:23:12.556Z,24.76
2016-07-19T10:24:12.580Z,24.8
2016-07-19T10:25:27.539Z,24.73
2016-07-19T10:26:12.641Z,24.93
2016-07-19T10:27:12.674Z,24.93
2016-07-19T10:28:12.710Z,24.78
2016-07-19T10:30:12.766Z,24.32
2016-07-19T10:32:12.828Z,23.72
2016-07-19T10:33:12.858Z,23.84
2016-07-19T10:34:12.880Z,23.97
2016-07-19T10:35:12.914Z,24.09
2016-07-19T10:36:13.642Z,24.27
2016-07-19T10:37:12.971Z,24.24
2016-07-19T10:38:13.008Z,24.35
2016-07-19T10:39:13.033Z,24.43
2016-07-19T10:40:27.986Z,24.24
2016-07-19T10:41:13.090Z,23.78
2016-07-19T10:42:13.124Z,23.65
2016-07-19T10:43:13.148Z,23.76
2016-07-19T10:44:13.185Z,24.03
2016-07-19T10:45:13.224Z,23.87
2016-07-19T10:46:13.241Z,23.85
2016-07-19T10:47:13.271Z,24.02
2016-07-19T10:48:28.228Z,24.13
2016-07-19T10:49:13.335Z,23.95
2016-07-19T10:50:13.373Z,24.02
2016-07-19T10:51:13.396Z,24.15
2016-07-19T10:52:13.417Z,23.75
2016-07-19T10:53:13.444Z,23.38
2016-07-19T10:54:13.500Z,23.2
2016-07-19T10:55:13.512Z,23.31
2016-07-19T10:56:13.538Z,23.28
2016-07-19T10:57:13.577Z,23.12
2016-07-19T10:58:13.600Z,23.23
2016-07-19T10:59:13.627Z,23.57
2016-07-19T11:04:13.779Z,23.97
2016-07-19T11:05:13.805Z,24.21
2016-07-19T11:06:13.834Z,24.31
2016-07-19T11:07:13.870Z,24.2
2016-07-19T11:08:28.813Z,24.1
2016-07-19T11:09:14.613Z,24
2016-07-19T11:10:13.951Z,23.61
2016-07-19T11:11:13.982Z,23.61
2016-07-19T11:12:28.933Z,23.6
2016-07-19T11:13:14.042Z,23.73
2016-07-19T11:14:14.068Z,23.61
2016-07-19T11:15:14.097Z,23.48
2016-07-19T11:16:14.138Z,23.25
2016-07-19T11:18:14.193Z,23.42
2016-07-19T11:19:14.217Z,23.33
2016-07-19T11:20:14.243Z,23.39
2016-07-19T11:21:29.198Z,23.51
2016-07-19T11:22:14.300Z,23.46
2016-07-19T11:23:14.333Z,23.46
2016-07-19T11:24:14.359Z,23.5
2016-07-19T11:25:29.312Z,23.33
2016-07-19T11:26:14.420Z,23.16
2016-07-19T11:27:14.453Z,23.31
2016-07-19T11:28:29.400Z,23.43
2016-07-19T11:29:14.508Z,23.58
2016-07-19T11:30:14.542Z,23.53
2016-07-19T11:31:14.566Z,23.5
2016-07-19T11:32:14.592Z,23.15
2016-07-19T11:33:14.628Z,23.02
2016-07-19T11:34:14.654Z,23.02
2016-07-19T11:35:14.686Z,23.12
2016-07-19T11:37:14.739Z,23.27
2016-07-19T11:38:14.776Z,23.35
2016-07-19T11:39:14.796Z,23.33
2016-07-19T11:40:14.835Z,23.47
2016-07-19T11:41:14.860Z,23.51
2016-07-19T11:42:29.805Z,23.78
2016-07-19T11:43:14.916Z,23.73
2016-07-19T11:44:29.868Z,23.54
2016-07-19T11:45:14.978Z,23.73
2016-07-19T11:46:15.002Z,23.58
2016-07-19T11:47:15.038Z,23.5
2016-07-19T11:48:15.070Z,23.55
2016-07-19T11:49:15.094Z,23.68
2016-07-19T11:50:15.116Z,23.79
2016-07-19T11:53:15.213Z,23.75
2016-07-19T11:54:15.235Z,23.79
2016-07-19T11:55:15.266Z,23.72
2016-07-19T11:56:15.295Z,23.7
2016-07-19T11:57:15.330Z,23.61
2016-07-19T11:58:15.353Z,23.68
2016-07-19T11:59:15.377Z,23.72
2016-07-19T12:00:30.337Z,23.83
2016-07-19T12:01:15.441Z,23.69
2016-07-19T12:02:15.479Z,23.47
2016-07-19T12:03:15.500Z,23.53
2016-07-19T12:04:15.524Z,23.61
2016-07-19T12:05:15.557Z,23.84
2016-07-19T12:06:15.592Z,24.15
2016-07-19T12:07:15.618Z,24.45
2016-07-19T12:08:15.645Z,24.58
2016-07-19T12:09:15.679Z,25.03
2016-07-19T12:12:30.686Z,25.05
2016-07-19T12:13:15.801Z,25.25
2016-07-19T12:14:15.821Z,25.2
2016-07-19T12:15:30.776Z,25.36
2016-07-19T12:17:15.915Z,25.4
2016-07-19T12:18:15.944Z,25.58
2016-07-19T12:19:15.976Z,25.72
2016-07-19T12:20:16.005Z,25.82
2016-07-19T12:21:16.027Z,25.92
2016-07-19T12:22:16.061Z,25.85
2016-07-19T12:23:16.092Z,25.82
2016-07-19T12:24:16.117Z,25.54
2016-07-19T12:25:16.152Z,25.58
2016-07-19T12:26:16.177Z,25.46
2016-07-19T12:27:16.214Z,25.57
2016-07-19T12:28:16.239Z,25.39
2016-07-19T12:29:16.273Z,25.2
2016-07-19T12:30:16.301Z,25.18
2016-07-19T12:31:16.332Z,25.05
2016-07-19T12:32:16.374Z,24.91
2016-07-19T12:34:17.121Z,25.2
2016-07-19T12:35:16.470Z,25.09
2016-07-19T12:36:16.485Z,25.17
2016-07-19T12:37:16.512Z,25.38
2016-07-19T12:38:16.555Z,25.52
2016-07-19T12:39:16.573Z,25.58
2016-07-19T12:40:16.608Z,25.75
2016-07-19T12:41:16.639Z,25.95
2016-07-19T12:42:16.663Z,26.07
2016-07-19T12:43:16.697Z,26.2
2016-07-19T12:44:17.425Z,26.23
2016-07-19T12:45:16.757Z,26.17
2016-07-19T12:46:16.793Z,26.26
2016-07-19T12:47:31.731Z,26.43
2016-07-19T12:49:16.887Z,26.32
2016-07-19T12:50:16.914Z,26.47
2016-07-19T12:51:16.945Z,26.67
2016-07-19T12:52:31.890Z,26.62
2016-07-19T12:53:16.986Z,26.85
2016-07-19T12:54:17.016Z,27.09
2016-07-19T12:55:17.063Z,27.02
2016-07-19T12:56:17.080Z,26.7
2016-07-19T12:57:17.114Z,26.65
2016-07-19T12:58:17.137Z,26.47
2016-07-19T12:59:17.176Z,26.29
2016-07-19T13:00:17.206Z,26.43
2016-07-19T13:01:17.228Z,26.3
2016-07-19T13:02:17.266Z,26.47
2016-07-19T13:03:32.211Z,26.48
2016-07-19T13:04:17.336Z,26.36
2016-07-19T13:05:17.355Z,26.62
2016-07-19T13:06:17.382Z,26.6
2016-07-19T13:07:17.416Z,26.62
2016-07-19T13:09:17.480Z,26.32
2016-07-19T13:10:17.504Z,26.28
2016-07-19T13:12:17.569Z,26.3
2016-07-19T13:14:17.626Z,25.73
2016-07-19T13:15:17.656Z,25.91
2016-07-19T13:16:17.684Z,26.01
2016-07-19T13:17:17.719Z,26.23
2016-07-19T13:18:17.751Z,26.33
2016-07-19T13:20:17.809Z,26.39
2016-07-19T13:21:17.843Z,26.45
2016-07-19T13:22:18.565Z,26.4
2016-07-19T13:23:17.903Z,26.63
2016-07-19T13:24:18.626Z,26.76
2016-07-19T13:25:17.965Z,26.82
2016-07-19T13:26:17.993Z,26.67
2016-07-19T13:27:18.022Z,26.57
2016-07-19T13:28:18.049Z,26.75
2016-07-19T13:29:33.005Z,26.55
2016-07-19T13:30:18.108Z,26.65
2016-07-19T13:31:18.151Z,26.67
2016-07-19T13:32:33.094Z,26.51
2016-07-19T13:33:18.206Z,26.37
2016-07-19T13:34:18.239Z,26.3
2016-07-19T13:35:33.186Z,26.3
2016-07-19T13:36:18.296Z,26.32
2016-07-19T13:37:18.328Z,25.99
2016-07-19T13:38:18.360Z,26.06
2016-07-19T13:39:18.395Z,26.23
2016-07-19T13:40:18.417Z,26.39
2016-07-19T13:41:18.447Z,26.6
2016-07-19T13:42:18.483Z,26.8
2016-07-19T13:43:18.509Z,26.94
2016-07-19T13:44:18.541Z,26.76
2016-07-19T13:46:18.606Z,26.52
2016-07-19T13:47:18.638Z,26.23
2016-07-19T13:48:18.662Z,25.83
2016-07-19T13:49:18.701Z,25.73
2016-07-19T13:50:33.642Z,25.82
2016-07-19T13:51:18.754Z,26.07
2016-07-19T13:52:18.781Z,26.17
2016-07-19T13:53:18.814Z,26.33
2016-07-19T13:54:18.847Z,26.26
2016-07-19T13:55:18.874Z,26.48